« 大熊猫 富山空港 2014/10/1 wed | トップページ | ある日1 成田国際空港 2014/9/10 wed »

2014/10/02

定点 富山空港 2014/10/2 thu

なんとも無く河原へ。夏の増水を生き延びた河原の木々が邪魔でしょうがない状態。

RJNT 020200Z 34009KT 310V010 9999 FEW040 BKN/// 25/16 Q1011

20141002_rjnt_00ja810a

今日は、梅。

20141002_rjnt_01ja810a

ANA886はエンジン始動時にトラブル。牽引でスポットにGTB。

20141002_rjnt_02tem

様子を見にターミナルへ。KIRA KIRA TONAMI がディスプレイだった。コスモスは夢の平だね。

RJNT 020300Z 36008KT 9999 FEW040 BKN/// 25/16 Q1010

20141002_rjnt_03ja810a

トラブルチェックで何ともなかったようで30mディレイで出発

20141002_rjnt_04ja810a

ANA886 RJNT-RJTT JA810A B787-8

20141002_rjnt_05b18605

20141002_rjnt_06b18605

CAL171 RJNT-RCTP B-18605 B737-809

RJNT 020400Z 35009KT 9999 FEW040 SCT120 BKN/// 25/17 Q1009

20141002_rjnt_07ja8504

ADO120 RJCC-RJNT JA8504 B737-54K

20141002_rjnt_08ja6768

JA6768 B412 富山県消防防災 訓練

20141002_rjnt_09ja8504

ADO120

RJNT 020500Z 36010KT 9999 FEW040 SCT080 BKN/// 24/17 Q1008

20141002_rjnt_10ja8504

20141002_rjnt_11ja8504

ADO121 RJNT-RJCC JA8504 B737-54K

20141002_rjnt_12ja610a

20141002_rjnt_13ja610a

20141002_rjnt_14ja610a

20141002_rjnt_15ja610a

ANA885 RJTT-RJNT JA610A B767-381ER

10月は、国際線用のERがちょくちょく入っている。

20141002_rjnt_16ja6768

JA6768

RJNT 020600Z 34005KT 310V010 9999 -RA FEW080 BKN120 23/18 Q1008

20141002_rjnt_17ja610a

キャー、とうとう雨模様。

20141002_rjnt_18ja610a

20141002_rjnt_19ja610a

20141002_rjnt_20ja610a

ANA888 RJNT-RJTT JA610A B767-381ER

追記、後で思い出した。これ2012年6月に成田でつぶれた梅干やった。

RJTT-RJNT
ANA     /882 JA8291
ANA881/884 JA8360
ANA883/886 JA810A
ANA885/888 JA610A
ANA887/890 JA817A
ANA889/892 JA8674
ANA891       JA8670

RJCC-RJNT
ADO120/121 JA8504

RCTP-RJNT
CAL170/171 B-18605

|

« 大熊猫 富山空港 2014/10/1 wed | トップページ | ある日1 成田国際空港 2014/9/10 wed »

富山空港」カテゴリの記事

コメント

コメントを書く



(ウェブ上には掲載しません)


コメントは記事投稿者が公開するまで表示されません。



トラックバック


この記事へのトラックバック一覧です: 定点 富山空港 2014/10/2 thu:

« 大熊猫 富山空港 2014/10/1 wed | トップページ | ある日1 成田国際空港 2014/9/10 wed »